createdAt,value
2022-09-07T00:01:29.478Z,72.77
2022-09-07T00:03:56.942Z,73.03
2022-09-07T00:06:24.207Z,72.83
2022-09-07T00:08:51.445Z,73.08
2022-09-07T00:11:19.064Z,72.85
2022-09-07T00:13:46.795Z,72.94
2022-09-07T00:16:17.006Z,72.95
2022-09-07T00:18:46.238Z,72.76
2022-09-07T00:21:14.087Z,72.67
2022-09-07T00:23:41.420Z,72.89
2022-09-07T00:26:09.949Z,72.77
2022-09-07T00:28:37.437Z,72.88
2022-09-07T00:31:05.018Z,72.83
2022-09-07T00:33:32.264Z,72.97
2022-09-07T00:35:59.540Z,72.85
2022-09-07T00:38:26.829Z,72.76
2022-09-07T00:40:54.151Z,73.04
2022-09-07T00:43:37.761Z,72.79
2022-09-07T00:46:05.455Z,72.94
2022-09-07T00:48:35.320Z,73.07
2022-09-07T00:51:03.509Z,73.04
2022-09-07T00:53:32.585Z,72.98
2022-09-07T00:55:59.887Z,72.95
2022-09-07T00:58:27.156Z,73.06
2022-09-07T01:00:55.803Z,72.98
2022-09-07T01:03:24.679Z,72.84
2022-09-07T01:05:53.830Z,73.13
2022-09-07T01:08:21.006Z,73.04
2022-09-07T01:10:48.255Z,72.94
2022-09-07T01:13:15.527Z,72.96
2022-09-07T01:16:06.063Z,73.18
2022-09-07T01:18:36.037Z,72.98
2022-09-07T01:21:14.491Z,73.12
2022-09-07T01:24:00.461Z,73.15
2022-09-07T01:26:28.022Z,72.98
2022-09-07T01:28:58.092Z,72.94
2022-09-07T01:31:40.670Z,73.10
2022-09-07T01:34:15.256Z,73.05
2022-09-07T01:36:48.890Z,73.16
2022-09-07T01:39:16.252Z,73.20
2022-09-07T01:41:52.463Z,72.99
2022-09-07T01:44:21.004Z,73.14
2022-09-07T01:47:01.504Z,72.96
2022-09-07T01:49:48.898Z,73.06
2022-09-07T01:52:17.795Z,73.15
2022-09-07T01:54:46.572Z,73.08
2022-09-07T01:57:19.048Z,73.01
2022-09-07T02:00:08.990Z,72.94
2022-09-07T02:02:46.188Z,73.05
2022-09-07T02:05:15.003Z,73.22
2022-09-07T02:07:45.958Z,73.20
2022-09-07T02:10:14.554Z,73.05
2022-09-07T02:12:49.405Z,73.04
2022-09-07T02:15:17.957Z,72.94
2022-09-07T02:17:46.394Z,73.31
2022-09-07T02:20:15.418Z,73.06
2022-09-07T02:22:44.771Z,73.20
2022-09-07T02:25:12.942Z,72.94
2022-09-07T02:27:41.567Z,72.93
2022-09-07T02:30:09.220Z,73.04
2022-09-07T02:32:36.410Z,72.93
2022-09-07T02:35:04.180Z,73.16
2022-09-07T02:37:31.458Z,73.16
2022-09-07T02:40:00.353Z,73.19
2022-09-07T02:42:31.727Z,73.02
2022-09-07T02:44:58.941Z,73.38
2022-09-07T02:47:26.162Z,72.98
2022-09-07T02:50:12.887Z,73.21
2022-09-07T02:52:58.641Z,73.20
2022-09-07T02:55:45.171Z,72.75
2022-09-07T02:58:18.325Z,73.07
2022-09-07T03:01:04.096Z,73.19
2022-09-07T03:03:51.561Z,72.99
2022-09-07T03:06:38.582Z,73.27
2022-09-07T03:09:07.187Z,72.85
2022-09-07T03:11:36.173Z,72.89
2022-09-07T03:14:14.533Z,73.00
2022-09-07T03:16:41.800Z,72.88
2022-09-07T03:19:09.014Z,73.04
2022-09-07T03:21:36.671Z,73.16
2022-09-07T03:24:04.052Z,72.86
2022-09-07T03:26:31.293Z,72.91
2022-09-07T03:28:58.983Z,73.04
2022-09-07T03:31:26.254Z,73.01
2022-09-07T03:33:54.490Z,72.94
2022-09-07T03:36:21.804Z,72.97
2022-09-07T03:38:49.016Z,73.09
2022-09-07T03:41:16.211Z,72.81
2022-09-07T03:43:43.407Z,72.83
2022-09-07T03:46:10.675Z,72.95
2022-09-07T03:48:39.407Z,73.03
2022-09-07T03:51:07.557Z,73.00
2022-09-07T03:53:35.366Z,72.83
2022-09-07T03:56:03.926Z,73.02
2022-09-07T03:58:31.839Z,72.92
2022-09-07T04:00:59.511Z,73.11
2022-09-07T04:03:29.370Z,73.05
2022-09-07T04:05:58.491Z,72.84
2022-09-07T04:08:26.487Z,73.03
2022-09-07T04:10:53.748Z,73.05
2022-09-07T04:13:20.946Z,72.96
2022-09-07T04:15:53.900Z,73.00
2022-09-07T04:18:21.656Z,72.90
2022-09-07T04:20:50.748Z,73.21
2022-09-07T04:23:18.750Z,73.07
2022-09-07T04:25:49.476Z,73.01
2022-09-07T04:28:17.034Z,73.07
2022-09-07T04:30:44.297Z,72.96
2022-09-07T04:33:11.594Z,72.95
2022-09-07T04:35:39.135Z,72.98
2022-09-07T04:38:06.601Z,73.01
2022-09-07T04:40:33.955Z,73.02
2022-09-07T04:43:01.167Z,72.89
2022-09-07T04:45:28.349Z,72.82
2022-09-07T04:47:55.521Z,72.98
2022-09-07T04:50:23.395Z,72.86
2022-09-07T04:52:51.053Z,72.79
2022-09-07T04:55:18.968Z,72.97
2022-09-07T04:57:48.703Z,73.10
2022-09-07T05:00:16.030Z,72.78
2022-09-07T05:02:43.377Z,73.01
2022-09-07T05:05:10.629Z,73.05
2022-09-07T05:07:37.833Z,72.64
2022-09-07T05:10:05.186Z,73.07
2022-09-07T05:12:32.396Z,73.12
2022-09-07T05:14:59.585Z,72.75
2022-09-07T05:17:26.873Z,72.74
2022-09-07T05:19:54.965Z,72.83
2022-09-07T05:22:22.464Z,73.14
2022-09-07T05:24:49.734Z,72.76
2022-09-07T05:27:16.893Z,72.73
2022-09-07T05:32:31.316Z,72.78
2022-09-07T05:34:58.555Z,72.85
2022-09-07T05:37:25.770Z,73.06
2022-09-07T05:39:56.995Z,72.95
2022-09-07T05:42:27.115Z,73.13
2022-09-07T05:44:54.360Z,72.86
2022-09-07T05:47:21.623Z,72.85
2022-09-07T05:49:48.852Z,72.83
2022-09-07T05:52:17.257Z,72.94
2022-09-07T05:54:44.474Z,72.84
2022-09-07T05:57:12.045Z,72.84
2022-09-07T05:59:40.319Z,72.93
2022-09-07T06:02:07.697Z,72.98
2022-09-07T06:04:35.420Z,73.10
2022-09-07T06:07:21.248Z,72.92
2022-09-07T06:12:36.865Z,72.81
2022-09-07T06:15:05.515Z,73.06
2022-09-07T06:17:33.198Z,73.08
2022-09-07T06:20:03.073Z,73.14
2022-09-07T06:22:31.346Z,73.08
2022-09-07T06:24:58.846Z,73.01
2022-09-07T06:27:26.171Z,72.86
2022-09-07T06:29:53.399Z,73.13
2022-09-07T06:35:08.518Z,72.95
2022-09-07T06:37:35.732Z,73.10
2022-09-07T06:40:03.309Z,73.04
2022-09-07T06:42:30.554Z,73.03
2022-09-07T06:44:58.636Z,73.22
2022-09-07T06:47:25.830Z,73.36
2022-09-07T06:49:53.044Z,73.05
2022-09-07T06:52:20.286Z,73.11
2022-09-07T06:57:23.171Z,73.21
2022-09-07T06:59:50.531Z,72.96
2022-09-07T07:02:17.827Z,73.03
2022-09-07T07:04:46.621Z,73.23
2022-09-07T07:07:14.192Z,73.32
2022-09-07T07:09:41.766Z,73.47
2022-09-07T07:12:09.513Z,73.38
2022-09-07T07:14:39.738Z,73.41
2022-09-07T07:17:08.510Z,73.51
2022-09-07T07:19:35.694Z,73.46
2022-09-07T07:22:18.648Z,73.35
2022-09-07T07:24:50.128Z,73.26
2022-09-07T07:27:17.605Z,73.49
2022-09-07T07:29:45.843Z,73.53
2022-09-07T07:32:13.385Z,73.56
2022-09-07T07:34:40.616Z,73.56
2022-09-07T07:37:07.911Z,73.60
2022-09-07T07:42:22.603Z,73.82
2022-09-07T07:44:49.999Z,73.80
2022-09-07T07:47:37.041Z,73.57
2022-09-07T07:53:41.257Z,73.93
2022-09-07T07:55:46.542Z,73.58
2022-09-07T07:58:13.754Z,73.71
2022-09-07T08:00:56.955Z,73.58
2022-09-07T08:03:24.787Z,73.68
2022-09-07T08:05:52.205Z,73.84
2022-09-07T08:08:19.678Z,74.11
2022-09-07T08:10:47.840Z,74.10
2022-09-07T08:13:15.753Z,73.77
2022-09-07T08:15:46.227Z,73.90
2022-09-07T08:18:14.088Z,73.78
2022-09-07T08:20:41.783Z,73.83
2022-09-07T08:23:08.898Z,73.90
2022-09-07T08:25:36.093Z,73.93
2022-09-07T08:28:04.067Z,74.10
2022-09-07T08:30:31.157Z,74.18
2022-09-07T08:32:58.343Z,74.12
2022-09-07T08:35:25.454Z,74.10
2022-09-07T08:37:52.628Z,73.97
2022-09-07T08:40:20.556Z,74.07
2022-09-07T08:42:51.899Z,73.92
2022-09-07T08:45:25.179Z,74.15
2022-09-07T08:47:52.328Z,74.23
2022-09-07T08:50:25.363Z,74.13
2022-09-07T08:52:55.393Z,74.33
2022-09-07T08:55:29.666Z,74.29
2022-09-07T08:58:00.363Z,74.40
2022-09-07T09:00:27.591Z,74.28
2022-09-07T09:05:41.858Z,74.16
2022-09-07T09:08:12.232Z,74.16
2022-09-07T09:10:43.059Z,74.20
2022-09-07T09:13:15.287Z,74.33
2022-09-07T09:15:47.603Z,74.18
2022-09-07T09:18:33.705Z,74.38
2022-09-07T09:21:01.599Z,74.30
2022-09-07T09:23:31.481Z,74.38
2022-09-07T09:26:02.387Z,74.55
2022-09-07T09:28:31.908Z,74.22
2022-09-07T09:30:59.814Z,74.64
2022-09-07T09:33:27.498Z,74.27
2022-09-07T09:35:55.925Z,74.44
2022-09-07T09:38:36.058Z,74.24
2022-09-07T09:41:04.095Z,74.38
2022-09-07T09:43:34.055Z,74.49
2022-09-07T09:46:17.229Z,74.37
2022-09-07T09:48:47.476Z,74.18
2022-09-07T09:54:09.353Z,74.20
2022-09-07T09:56:37.247Z,74.29
2022-09-07T10:05:26.459Z,74.22
2022-09-07T10:07:53.833Z,74.34
2022-09-07T10:10:20.964Z,74.42
2022-09-07T10:12:48.040Z,74.54
2022-09-07T10:15:28.075Z,74.41
2022-09-07T10:17:55.173Z,74.44
2022-09-07T10:20:22.241Z,74.51
2022-09-07T10:22:52.412Z,74.59
2022-09-07T10:25:36.778Z,74.40
2022-09-07T10:28:14.379Z,74.38
2022-09-07T10:30:47.784Z,74.53
2022-09-07T10:33:30.622Z,74.32
2022-09-07T10:36:09.426Z,74.37
2022-09-07T10:38:38.591Z,74.34
2022-09-07T10:41:07.340Z,74.50
2022-09-07T10:43:40.557Z,74.43
2022-09-07T10:46:10.788Z,74.56
2022-09-07T10:48:38.310Z,74.63
2022-09-07T10:51:14.024Z,74.59
2022-09-07T10:53:45.462Z,74.61
2022-09-07T10:56:18.244Z,74.62
2022-09-07T10:59:03.940Z,74.62
2022-09-07T11:01:35.133Z,74.46
2022-09-07T11:04:17.540Z,74.73
2022-09-07T11:06:49.982Z,74.63
2022-09-07T11:09:35.376Z,74.29
2022-09-07T11:12:05.440Z,74.43
2022-09-07T11:14:43.208Z,74.67
2022-09-07T11:17:21.100Z,74.44
2022-09-07T11:20:08.771Z,74.61
2022-09-07T11:22:36.708Z,74.61
2022-09-07T11:28:22.559Z,74.43
2022-09-07T11:30:51.291Z,74.47
2022-09-07T11:33:18.512Z,74.72
2022-09-07T11:35:50.370Z,74.54
2022-09-07T11:38:27.668Z,75.03
2022-09-07T11:41:13.058Z,74.75
2022-09-07T11:43:41.914Z,74.73
2022-09-07T11:46:16.809Z,74.72
2022-09-07T11:48:45.470Z,74.64
2022-09-07T11:51:18.692Z,74.86
2022-09-07T11:53:46.833Z,74.69
2022-09-07T11:56:36.156Z,74.74
2022-09-07T11:59:06.700Z,74.65
2022-09-07T12:01:49.760Z,74.83
2022-09-07T12:04:27.413Z,74.51
2022-09-07T12:07:00.660Z,74.67
2022-09-07T12:09:34.084Z,74.89
2022-09-07T12:12:10.068Z,74.74
2022-09-07T12:14:46.126Z,74.45
2022-09-07T12:17:17.485Z,74.85
2022-09-07T12:19:44.636Z,74.61
2022-09-07T12:22:21.316Z,74.60
2022-09-07T12:24:49.256Z,74.64
2022-09-07T12:27:22.301Z,74.60
2022-09-07T12:29:50.240Z,74.59
2022-09-07T12:35:26.231Z,74.89
2022-09-07T12:37:53.656Z,74.76
2022-09-07T12:40:35.980Z,74.76
2022-09-07T12:43:15.089Z,74.95
2022-09-07T12:45:42.428Z,74.64
2022-09-07T12:48:33.005Z,74.75
2022-09-07T12:51:10.240Z,74.72
2022-09-07T12:53:42.190Z,74.71
2022-09-07T12:56:16.913Z,74.89
2022-09-07T12:58:44.396Z,74.95
2022-09-07T13:01:34.657Z,74.82
2022-09-07T13:04:10.366Z,74.81
2022-09-07T13:07:02.413Z,75.08
2022-09-07T13:09:36.296Z,74.63
2022-09-07T13:15:43.501Z,74.71
2022-09-07T13:18:25.876Z,74.67
2022-09-07T13:21:12.017Z,74.86
2022-09-07T13:23:45.775Z,74.77
2022-09-07T13:26:13.506Z,75.02
2022-09-07T13:28:56.347Z,74.96
2022-09-07T13:31:42.961Z,74.93
2022-09-07T13:34:28.863Z,75.01
2022-09-07T13:36:56.293Z,74.93
2022-09-07T13:39:23.434Z,75.09
2022-09-07T13:41:52.424Z,74.90
2022-09-07T13:44:26.496Z,74.83
2022-09-07T13:46:59.580Z,74.75
2022-09-07T13:49:45.111Z,74.66
2022-09-07T13:52:30.651Z,75.11
2022-09-07T13:55:07.051Z,74.98
2022-09-07T13:57:34.159Z,74.79
2022-09-07T14:00:03.272Z,74.83
2022-09-07T14:02:34.926Z,74.87
2022-09-07T14:05:02.236Z,74.80
2022-09-07T14:07:29.699Z,74.97
2022-09-07T14:10:13.475Z,74.80
2022-09-07T14:12:44.664Z,74.87
2022-09-07T14:15:18.661Z,74.87
2022-09-07T14:17:45.896Z,74.87
2022-09-07T14:20:13.491Z,74.85
2022-09-07T14:22:40.632Z,75.00
2022-09-07T14:25:08.297Z,75.04
2022-09-07T14:27:36.398Z,74.90
2022-09-07T14:30:22.101Z,75.05
2022-09-07T14:32:50.099Z,74.99
2022-09-07T14:35:21.170Z,75.17
2022-09-07T14:37:48.410Z,75.16
2022-09-07T14:40:16.688Z,75.17
2022-09-07T14:42:43.878Z,75.05
2022-09-07T14:45:20.165Z,74.91
2022-09-07T14:47:47.424Z,75.02
2022-09-07T14:50:16.938Z,74.93
2022-09-07T14:53:33.887Z,75.17
2022-09-07T14:55:37.393Z,75.26
2022-09-07T14:58:13.965Z,75.15
2022-09-07T15:00:41.056Z,75.26
2022-09-07T15:03:27.595Z,75.18
2022-09-07T15:06:00.836Z,75.19
2022-09-07T15:08:40.572Z,75.46
2022-09-07T15:13:57.109Z,75.23
2022-09-07T15:16:25.460Z,75.32
2022-09-07T15:18:56.444Z,75.17
2022-09-07T15:21:24.327Z,75.38
2022-09-07T15:23:51.959Z,75.12
2022-09-07T15:29:10.852Z,75.17
2022-09-07T15:31:42.645Z,75.11
2022-09-07T15:34:15.781Z,75.32
2022-09-07T15:36:43.912Z,75.49
2022-09-07T15:39:18.280Z,75.19
2022-09-07T15:41:45.726Z,75.26
2022-09-07T15:44:13.889Z,75.34
2022-09-07T15:47:43.255Z,75.39
2022-09-07T15:49:31.247Z,75.24
2022-09-07T15:52:06.186Z,75.52
2022-09-07T15:54:35.219Z,75.34
2022-09-07T15:59:51.356Z,75.36
2022-09-07T16:05:07.145Z,75.43
2022-09-07T16:10:21.686Z,75.32
2022-09-07T16:13:10.923Z,75.32
2022-09-07T16:15:35.975Z,75.53
2022-09-07T16:18:04.450Z,75.41
2022-09-07T16:20:32.601Z,75.35
2022-09-07T16:23:16.173Z,75.47
2022-09-07T16:25:55.011Z,75.22
2022-09-07T16:28:22.606Z,75.35
2022-09-07T16:30:50.051Z,75.37
2022-09-07T16:33:17.227Z,75.36
2022-09-07T16:35:44.730Z,75.24
2022-09-07T16:40:59.408Z,75.33
2022-09-07T16:43:26.775Z,75.52
2022-09-07T16:46:04.476Z,75.58
2022-09-07T16:48:32.524Z,75.50
2022-09-07T16:51:03.040Z,75.61
2022-09-07T16:53:30.769Z,75.40
2022-09-07T16:56:07.778Z,75.36
2022-09-07T16:58:37.406Z,75.63
2022-09-07T17:01:15.702Z,75.70
2022-09-07T17:03:45.893Z,75.59
2022-09-07T17:06:13.911Z,75.42
2022-09-07T17:08:41.216Z,75.59
2022-09-07T17:11:09.750Z,75.40
2022-09-07T17:13:37.377Z,75.77
2022-09-07T17:16:05.053Z,75.29
2022-09-07T17:21:20.013Z,75.33
2022-09-07T17:23:54.337Z,75.37
2022-09-07T17:26:22.622Z,75.38
2022-09-07T17:28:50.854Z,75.81
2022-09-07T17:34:09.825Z,75.50
2022-09-07T17:36:37.019Z,75.68
2022-09-07T17:39:19.906Z,75.38
2022-09-07T17:41:47.818Z,75.34
2022-09-07T17:44:16.166Z,75.40
2022-09-07T17:46:43.356Z,75.41
2022-09-07T17:49:12.416Z,75.36
2022-09-07T17:51:39.671Z,75.53
2022-09-07T17:54:11.097Z,75.40
2022-09-07T17:56:39.255Z,75.37
2022-09-07T18:01:56.581Z,75.51
2022-09-07T18:04:23.890Z,75.70
2022-09-07T18:06:51.159Z,75.59
2022-09-07T18:09:19.654Z,75.65
2022-09-07T18:11:48.728Z,75.86
2022-09-07T18:14:16.498Z,75.68
2022-09-07T18:16:44.121Z,75.60
2022-09-07T18:19:11.354Z,75.86
2022-09-07T18:21:39.335Z,75.41
2022-09-07T18:24:08.813Z,75.51
2022-09-07T18:26:36.342Z,75.50
2022-09-07T18:29:03.983Z,75.70
2022-09-07T18:31:31.647Z,75.53
2022-09-07T18:33:59.039Z,75.74
2022-09-07T18:36:26.174Z,75.57
2022-09-07T18:38:53.342Z,75.77
2022-09-07T18:41:20.562Z,75.65
2022-09-07T18:43:48.473Z,75.57
2022-09-07T18:46:16.559Z,75.65
2022-09-07T18:48:43.901Z,75.61
2022-09-07T18:51:11.048Z,75.85
2022-09-07T18:53:38.235Z,75.77
2022-09-07T18:56:08.103Z,75.68
2022-09-07T18:58:35.215Z,75.68
2022-09-07T19:01:03.152Z,75.63
2022-09-07T19:03:30.781Z,75.97
2022-09-07T19:06:00.810Z,76.17
2022-09-07T19:08:31.633Z,75.66
2022-09-07T19:11:11.797Z,75.93
2022-09-07T19:13:39.042Z,75.66
2022-09-07T19:16:10.008Z,76.03
2022-09-07T19:18:37.295Z,76.01
2022-09-07T19:21:08.345Z,75.96
2022-09-07T19:23:35.577Z,75.78
2022-09-07T19:26:03.097Z,75.98
2022-09-07T19:28:30.215Z,75.69
2022-09-07T19:31:06.449Z,75.93
2022-09-07T19:33:35.093Z,75.76
2022-09-07T19:36:05.814Z,75.75
2022-09-07T19:38:32.966Z,75.94
2022-09-07T19:41:00.342Z,75.71
2022-09-07T19:43:30.282Z,75.75
2022-09-07T19:45:57.420Z,75.81
2022-09-07T19:48:24.670Z,75.91
2022-09-07T19:50:51.831Z,75.75
2022-09-07T19:53:18.999Z,76.10
2022-09-07T19:55:46.131Z,75.79
2022-09-07T19:58:13.321Z,75.89
2022-09-07T20:00:41.672Z,75.87
2022-09-07T20:03:10.531Z,75.97
2022-09-07T20:05:38.550Z,75.66
2022-09-07T20:08:05.758Z,76.16
2022-09-07T20:10:33.191Z,75.87
2022-09-07T20:13:00.365Z,75.86
2022-09-07T20:15:27.581Z,75.80
2022-09-07T20:17:54.664Z,75.96
2022-09-07T20:20:21.969Z,75.86
2022-09-07T20:22:49.172Z,76.02
2022-09-07T20:25:16.371Z,75.86
2022-09-07T20:27:43.766Z,75.84
2022-09-07T20:30:11.365Z,76.05
2022-09-07T20:32:38.539Z,76.27
2022-09-07T20:35:06.091Z,76.19
2022-09-07T20:37:34.136Z,76.24
2022-09-07T20:40:01.438Z,76.05
2022-09-07T20:42:28.630Z,75.93
2022-09-07T20:44:55.752Z,76.46
2022-09-07T20:47:23.908Z,76.16
2022-09-07T20:49:52.188Z,76.12
2022-09-07T20:52:19.334Z,76.01
2022-09-07T20:54:46.442Z,75.98
2022-09-07T20:57:14.682Z,75.95
2022-09-07T20:59:41.822Z,75.97
2022-09-07T21:02:09.651Z,76.02
2022-09-07T21:04:36.929Z,76.02
2022-09-07T21:07:04.107Z,75.96
2022-09-07T21:09:31.273Z,76.19
2022-09-07T21:11:58.427Z,76.06
2022-09-07T21:14:25.595Z,75.98
2022-09-07T21:16:52.733Z,75.97
2022-09-07T21:19:19.916Z,76.23
2022-09-07T21:21:47.074Z,76.18
2022-09-07T21:24:18.375Z,76.14
2022-09-07T21:26:46.660Z,75.96
2022-09-07T21:29:15.277Z,75.89
2022-09-07T21:31:42.477Z,75.95
2022-09-07T21:34:09.593Z,76.04
2022-09-07T21:36:36.769Z,76.04
2022-09-07T21:39:04.369Z,76.06
2022-09-07T21:41:31.547Z,76.11
2022-09-07T21:43:59.238Z,76.05
2022-09-07T21:46:26.796Z,76.14
2022-09-07T21:48:54.649Z,76.25
2022-09-07T21:51:21.850Z,76.38
2022-09-07T21:53:53.085Z,76.33
2022-09-07T21:56:20.423Z,75.99
2022-09-07T21:58:47.705Z,76.05
2022-09-07T22:01:17.048Z,76.11
2022-09-07T22:03:44.811Z,76.08
2022-09-07T22:06:12.019Z,76.07
2022-09-07T22:08:39.653Z,76.01
2022-09-07T22:11:07.607Z,76.17
2022-09-07T22:13:34.993Z,76.21
2022-09-07T22:16:03.516Z,76.03
2022-09-07T22:18:30.851Z,76.25
2022-09-07T22:21:08.133Z,76.21
2022-09-07T22:23:36.100Z,76.06
2022-09-07T22:26:03.290Z,76.06
2022-09-07T22:28:31.531Z,76.21
2022-09-07T22:31:27.918Z,75.86
2022-09-07T22:33:55.156Z,76.12
2022-09-07T22:36:23.043Z,76.05
2022-09-07T22:38:51.102Z,75.97
2022-09-07T22:41:19.163Z,76.11
2022-09-07T22:43:46.424Z,76.06
2022-09-07T22:46:14.625Z,75.81
2022-09-07T22:48:41.791Z,76.08
2022-09-07T22:51:09.069Z,75.80
2022-09-07T22:53:37.055Z,75.91
2022-09-07T22:56:07.688Z,75.76
2022-09-07T22:58:37.649Z,75.70
2022-09-07T23:01:05.251Z,75.90
2022-09-07T23:03:32.961Z,75.63
2022-09-07T23:06:03.058Z,75.87
2022-09-07T23:08:30.287Z,75.60
2022-09-07T23:11:05.292Z,75.62
2022-09-07T23:13:33.004Z,75.57
2022-09-07T23:16:06.391Z,75.65
2022-09-07T23:18:33.795Z,75.65
2022-09-07T23:21:03.520Z,75.39
2022-09-07T23:23:30.707Z,75.69
2022-09-07T23:26:00.101Z,75.67
2022-09-07T23:28:27.230Z,75.51
2022-09-07T23:30:54.759Z,75.54
2022-09-07T23:33:22.399Z,75.58
2022-09-07T23:36:16.376Z,75.54
2022-09-07T23:38:43.799Z,75.60
2022-09-07T23:41:10.935Z,75.61
2022-09-07T23:43:40.363Z,75.43
2022-09-07T23:46:07.483Z,75.45
2022-09-07T23:48:34.757Z,75.32
2022-09-07T23:51:01.945Z,75.35
2022-09-07T23:53:29.120Z,75.29
2022-09-07T23:55:56.324Z,75.36
2022-09-07T23:58:23.551Z,75.27
